sensor_id;sensor_type;location;lat;lon;timestamp;temperature;humidity
74171;DHT22;62526;50.948;6.590;2023-12-20T00:01:33;11.20;99.90
74171;DHT22;62526;50.948;6.590;2023-12-20T00:04:04;11.20;99.90
74171;DHT22;62526;50.948;6.590;2023-12-20T00:06:31;10.80;99.90
74171;DHT22;62526;50.948;6.590;2023-12-20T00:08:58;10.90;99.90
74171;DHT22;62526;50.948;6.590;2023-12-20T00:11:26;11.10;99.90
74171;DHT22;62526;50.948;6.590;2023-12-20T00:13:52;11.10;99.90
74171;DHT22;62526;50.948;6.590;2023-12-20T00:16:19;11.30;99.90
74171;DHT22;62526;50.948;6.590;2023-12-20T00:18:46;11.30;99.90
74171;DHT22;62526;50.948;6.590;2023-12-20T00:21:13;11.50;99.90
74171;DHT22;62526;50.948;6.590;2023-12-20T00:23:41;11.60;99.90
74171;DHT22;62526;50.948;6.590;2023-12-20T00:26:08;11.70;99.90
74171;DHT22;62526;50.948;6.590;2023-12-20T00:28:35;11.70;99.90
74171;DHT22;62526;50.948;6.590;2023-12-20T00:31:02;11.70;99.90
74171;DHT22;62526;50.948;6.590;2023-12-20T00:33:29;11.70;99.90
74171;DHT22;62526;50.948;6.590;2023-12-20T00:35:56;11.70;99.90
74171;DHT22;62526;50.948;6.590;2023-12-20T00:38:22;11.60;99.90
74171;DHT22;62526;50.948;6.590;2023-12-20T00:40:49;11.50;99.90
74171;DHT22;62526;50.948;6.590;2023-12-20T00:43:16;11.30;99.90
74171;DHT22;62526;50.948;6.590;2023-12-20T00:45:43;11.10;99.90
74171;DHT22;62526;50.948;6.590;2023-12-20T00:48:10;11.00;99.90
74171;DHT22;62526;50.948;6.590;2023-12-20T00:50:37;10.90;99.90
74171;DHT22;62526;50.948;6.590;2023-12-20T00:53:04;11.00;99.90
74171;DHT22;62526;50.948;6.590;2023-12-20T00:55:31;11.10;99.90
74171;DHT22;62526;50.948;6.590;2023-12-20T00:57:58;11.00;99.90
74171;DHT22;62526;50.948;6.590;2023-12-20T01:00:24;11.00;99.90
74171;DHT22;62526;50.948;6.590;2023-12-20T01:02:51;11.00;99.90
74171;DHT22;62526;50.948;6.590;2023-12-20T01:05:19;11.00;99.90
74171;DHT22;62526;50.948;6.590;2023-12-20T01:07:46;11.00;99.90
74171;DHT22;62526;50.948;6.590;2023-12-20T01:10:13;10.90;99.90
74171;DHT22;62526;50.948;6.590;2023-12-20T01:12:40;11.00;99.90
74171;DHT22;62526;50.948;6.590;2023-12-20T01:15:06;11.00;99.90
74171;DHT22;62526;50.948;6.590;2023-12-20T01:17:33;11.00;99.90
74171;DHT22;62526;50.948;6.590;2023-12-20T01:20:00;11.00;99.90
74171;DHT22;62526;50.948;6.590;2023-12-20T01:22:26;10.90;99.90
74171;DHT22;62526;50.948;6.590;2023-12-20T01:24:53;10.90;99.90
74171;DHT22;62526;50.948;6.590;2023-12-20T01:27:20;10.60;99.90
74171;DHT22;62526;50.948;6.590;2023-12-20T01:29:46;10.10;99.90
74171;DHT22;62526;50.948;6.590;2023-12-20T01:32:13;10.20;99.90
74171;DHT22;62526;50.948;6.590;2023-12-20T01:34:40;10.20;99.90
74171;DHT22;62526;50.948;6.590;2023-12-20T01:37:07;10.20;99.90
74171;DHT22;62526;50.948;6.590;2023-12-20T01:39:34;10.20;99.90
74171;DHT22;62526;50.948;6.590;2023-12-20T01:42:01;10.20;99.90
74171;DHT22;62526;50.948;6.590;2023-12-20T01:44:27;10.20;99.90
74171;DHT22;62526;50.948;6.590;2023-12-20T01:46:54;10.20;99.90
74171;DHT22;62526;50.948;6.590;2023-12-20T01:49:21;10.20;99.90
74171;DHT22;62526;50.948;6.590;2023-12-20T01:51:55;10.20;99.90
74171;DHT22;62526;50.948;6.590;2023-12-20T01:54:42;10.20;99.90
74171;DHT22;62526;50.948;6.590;2023-12-20T01:57:20;10.10;99.90
74171;DHT22;62526;50.948;6.590;2023-12-20T01:59:46;10.00;99.90
74171;DHT22;62526;50.948;6.590;2023-12-20T02:02:13;9.80;99.90
74171;DHT22;62526;50.948;6.590;2023-12-20T02:04:40;9.80;99.90
74171;DHT22;62526;50.948;6.590;2023-12-20T02:07:07;9.80;99.90
74171;DHT22;62526;50.948;6.590;2023-12-20T02:09:33;9.80;99.90
74171;DHT22;62526;50.948;6.590;2023-12-20T02:12:01;9.80;99.90
74171;DHT22;62526;50.948;6.590;2023-12-20T02:14:27;9.70;99.90
74171;DHT22;62526;50.948;6.590;2023-12-20T02:16:55;9.70;99.90
74171;DHT22;62526;50.948;6.590;2023-12-20T02:19:21;9.60;99.90
74171;DHT22;62526;50.948;6.590;2023-12-20T02:21:48;9.40;99.90
74171;DHT22;62526;50.948;6.590;2023-12-20T02:24:15;9.50;99.90
74171;DHT22;62526;50.948;6.590;2023-12-20T02:26:42;9.50;99.90
74171;DHT22;62526;50.948;6.590;2023-12-20T02:29:08;9.50;99.90
74171;DHT22;62526;50.948;6.590;2023-12-20T02:31:35;9.50;99.90
74171;DHT22;62526;50.948;6.590;2023-12-20T02:34:02;9.60;99.90
74171;DHT22;62526;50.948;6.590;2023-12-20T02:36:29;9.50;99.90
74171;DHT22;62526;50.948;6.590;2023-12-20T02:38:56;9.30;99.90
74171;DHT22;62526;50.948;6.590;2023-12-20T02:41:22;9.30;99.90
74171;DHT22;62526;50.948;6.590;2023-12-20T02:43:49;9.50;99.90
74171;DHT22;62526;50.948;6.590;2023-12-20T02:46:16;11.10;99.90
74171;DHT22;62526;50.948;6.590;2023-12-20T02:48:43;9.30;99.90
74171;DHT22;62526;50.948;6.590;2023-12-20T02:51:09;9.40;99.90
74171;DHT22;62526;50.948;6.590;2023-12-20T02:53:36;9.50;99.90
74171;DHT22;62526;50.948;6.590;2023-12-20T02:56:04;9.50;99.90
74171;DHT22;62526;50.948;6.590;2023-12-20T02:58:34;9.50;99.90
74171;DHT22;62526;50.948;6.590;2023-12-20T03:01:01;9.50;99.90
74171;DHT22;62526;50.948;6.590;2023-12-20T03:03:28;9.40;99.90
74171;DHT22;62526;50.948;6.590;2023-12-20T03:05:56;9.40;99.90
74171;DHT22;62526;50.948;6.590;2023-12-20T03:08:25;9.50;99.90
74171;DHT22;62526;50.948;6.590;2023-12-20T03:10:51;9.40;99.90
74171;DHT22;62526;50.948;6.590;2023-12-20T03:13:18;9.40;99.90
74171;DHT22;62526;50.948;6.590;2023-12-20T03:15:48;9.30;99.90
74171;DHT22;62526;50.948;6.590;2023-12-20T03:18:14;9.20;99.90
74171;DHT22;62526;50.948;6.590;2023-12-20T03:20:42;9.60;99.90
74171;DHT22;62526;50.948;6.590;2023-12-20T03:23:09;9.10;99.90
74171;DHT22;62526;50.948;6.590;2023-12-20T03:25:35;9.20;99.90
74171;DHT22;62526;50.948;6.590;2023-12-20T03:28:03;9.30;99.90
74171;DHT22;62526;50.948;6.590;2023-12-20T03:30:30;9.30;99.90
74171;DHT22;62526;50.948;6.590;2023-12-20T03:32:57;9.30;99.90
74171;DHT22;62526;50.948;6.590;2023-12-20T03:35:24;9.10;99.90
74171;DHT22;62526;50.948;6.590;2023-12-20T03:37:51;9.30;99.90
74171;DHT22;62526;50.948;6.590;2023-12-20T03:40:18;9.30;99.90
74171;DHT22;62526;50.948;6.590;2023-12-20T03:42:44;9.30;99.90
74171;DHT22;62526;50.948;6.590;2023-12-20T03:45:14;9.30;99.90
74171;DHT22;62526;50.948;6.590;2023-12-20T03:47:41;9.10;99.90
74171;DHT22;62526;50.948;6.590;2023-12-20T03:50:07;9.20;99.90
74171;DHT22;62526;50.948;6.590;2023-12-20T03:52:35;9.20;99.90
74171;DHT22;62526;50.948;6.590;2023-12-20T03:55:01;9.30;99.90
74171;DHT22;62526;50.948;6.590;2023-12-20T03:57:29;9.20;99.90
74171;DHT22;62526;50.948;6.590;2023-12-20T03:59:55;9.30;99.90
74171;DHT22;62526;50.948;6.590;2023-12-20T04:02:22;9.20;99.90
74171;DHT22;62526;50.948;6.590;2023-12-20T04:04:50;9.10;99.90
74171;DHT22;62526;50.948;6.590;2023-12-20T04:07:18;9.10;99.90
74171;DHT22;62526;50.948;6.590;2023-12-20T04:09:44;8.80;99.90
74171;DHT22;62526;50.948;6.590;2023-12-20T04:12:11;9.00;99.90
74171;DHT22;62526;50.948;6.590;2023-12-20T04:14:38;9.00;99.90
74171;DHT22;62526;50.948;6.590;2023-12-20T04:17:05;9.00;99.90
74171;DHT22;62526;50.948;6.590;2023-12-20T04:19:32;9.20;99.90
74171;DHT22;62526;50.948;6.590;2023-12-20T04:21:59;9.10;99.90
74171;DHT22;62526;50.948;6.590;2023-12-20T04:24:26;9.10;99.90
74171;DHT22;62526;50.948;6.590;2023-12-20T04:26:53;9.00;99.90
74171;DHT22;62526;50.948;6.590;2023-12-20T04:29:19;8.80;99.90
74171;DHT22;62526;50.948;6.590;2023-12-20T04:31:46;8.60;99.90
74171;DHT22;62526;50.948;6.590;2023-12-20T04:34:14;8.70;99.90
74171;DHT22;62526;50.948;6.590;2023-12-20T04:36:41;8.70;99.90
74171;DHT22;62526;50.948;6.590;2023-12-20T04:39:09;8.50;99.90
74171;DHT22;62526;50.948;6.590;2023-12-20T04:41:36;8.30;99.90
74171;DHT22;62526;50.948;6.590;2023-12-20T04:44:04;8.40;99.90
74171;DHT22;62526;50.948;6.590;2023-12-20T04:46:31;8.60;99.90
74171;DHT22;62526;50.948;6.590;2023-12-20T04:48:58;8.60;99.90
74171;DHT22;62526;50.948;6.590;2023-12-20T04:51:25;8.60;99.90
74171;DHT22;62526;50.948;6.590;2023-12-20T04:53:52;8.40;99.90
74171;DHT22;62526;50.948;6.590;2023-12-20T04:56:19;8.40;99.90
74171;DHT22;62526;50.948;6.590;2023-12-20T04:58:49;8.40;99.90
74171;DHT22;62526;50.948;6.590;2023-12-20T05:01:16;8.50;99.90
74171;DHT22;62526;50.948;6.590;2023-12-20T05:03:43;8.30;99.90
74171;DHT22;62526;50.948;6.590;2023-12-20T05:06:10;8.40;99.90
74171;DHT22;62526;50.948;6.590;2023-12-20T05:08:37;8.50;99.90
74171;DHT22;62526;50.948;6.590;2023-12-20T05:11:05;8.60;99.90
74171;DHT22;62526;50.948;6.590;2023-12-20T05:13:32;8.20;99.90
74171;DHT22;62526;50.948;6.590;2023-12-20T05:15:58;8.40;99.90
74171;DHT22;62526;50.948;6.590;2023-12-20T05:18:26;8.50;99.90
74171;DHT22;62526;50.948;6.590;2023-12-20T05:20:52;8.80;99.90
74171;DHT22;62526;50.948;6.590;2023-12-20T05:23:20;8.70;99.90
74171;DHT22;62526;50.948;6.590;2023-12-20T05:25:47;8.80;99.90
74171;DHT22;62526;50.948;6.590;2023-12-20T05:28:13;8.80;99.90
74171;DHT22;62526;50.948;6.590;2023-12-20T05:30:41;8.80;99.90
74171;DHT22;62526;50.948;6.590;2023-12-20T05:33:08;9.00;99.90
74171;DHT22;62526;50.948;6.590;2023-12-20T05:35:35;9.30;99.90
74171;DHT22;62526;50.948;6.590;2023-12-20T05:38:02;9.20;99.90
74171;DHT22;62526;50.948;6.590;2023-12-20T05:40:29;9.40;99.90
74171;DHT22;62526;50.948;6.590;2023-12-20T05:42:56;9.50;99.90
74171;DHT22;62526;50.948;6.590;2023-12-20T05:45:23;9.20;99.90
74171;DHT22;62526;50.948;6.590;2023-12-20T05:47:50;9.30;99.90
74171;DHT22;62526;50.948;6.590;2023-12-20T05:50:16;9.20;99.90
74171;DHT22;62526;50.948;6.590;2023-12-20T05:52:44;8.90;99.90
74171;DHT22;62526;50.948;6.590;2023-12-20T05:55:10;8.80;99.90
74171;DHT22;62526;50.948;6.590;2023-12-20T05:57:38;8.90;99.90
74171;DHT22;62526;50.948;6.590;2023-12-20T06:00:05;9.10;99.90
74171;DHT22;62526;50.948;6.590;2023-12-20T06:02:33;9.10;99.90
74171;DHT22;62526;50.948;6.590;2023-12-20T06:04:59;9.30;99.90
74171;DHT22;62526;50.948;6.590;2023-12-20T06:07:27;9.30;99.90
74171;DHT22;62526;50.948;6.590;2023-12-20T06:09:53;9.30;99.90
74171;DHT22;62526;50.948;6.590;2023-12-20T06:12:20;9.30;99.90
74171;DHT22;62526;50.948;6.590;2023-12-20T06:14:47;9.40;99.90
74171;DHT22;62526;50.948;6.590;2023-12-20T06:17:14;9.20;99.90
74171;DHT22;62526;50.948;6.590;2023-12-20T06:19:41;9.00;99.90
74171;DHT22;62526;50.948;6.590;2023-12-20T06:22:08;9.00;99.90
74171;DHT22;62526;50.948;6.590;2023-12-20T06:24:34;9.10;99.90
74171;DHT22;62526;50.948;6.590;2023-12-20T06:27:02;9.40;99.90
74171;DHT22;62526;50.948;6.590;2023-12-20T06:29:29;9.60;99.90
74171;DHT22;62526;50.948;6.590;2023-12-20T06:31:57;9.70;99.90
74171;DHT22;62526;50.948;6.590;2023-12-20T06:34:24;9.70;99.90
74171;DHT22;62526;50.948;6.590;2023-12-20T06:36:52;9.50;99.90
74171;DHT22;62526;50.948;6.590;2023-12-20T06:39:18;9.20;99.90
74171;DHT22;62526;50.948;6.590;2023-12-20T06:41:45;9.30;99.90
74171;DHT22;62526;50.948;6.590;2023-12-20T06:44:12;9.30;99.90
74171;DHT22;62526;50.948;6.590;2023-12-20T06:46:39;9.10;99.90
74171;DHT22;62526;50.948;6.590;2023-12-20T06:49:07;9.20;99.90
74171;DHT22;62526;50.948;6.590;2023-12-20T06:51:34;9.30;99.90
74171;DHT22;62526;50.948;6.590;2023-12-20T06:54:01;9.40;99.90
74171;DHT22;62526;50.948;6.590;2023-12-20T06:56:31;9.20;99.90
74171;DHT22;62526;50.948;6.590;2023-12-20T06:58:59;9.30;99.90
74171;DHT22;62526;50.948;6.590;2023-12-20T07:01:26;9.40;99.90
74171;DHT22;62526;50.948;6.590;2023-12-20T07:03:52;9.50;99.90
74171;DHT22;62526;50.948;6.590;2023-12-20T07:06:20;9.40;99.90
74171;DHT22;62526;50.948;6.590;2023-12-20T07:08:46;9.30;99.90
74171;DHT22;62526;50.948;6.590;2023-12-20T07:11:13;9.20;99.90
74171;DHT22;62526;50.948;6.590;2023-12-20T07:13:41;9.20;99.90
74171;DHT22;62526;50.948;6.590;2023-12-20T07:16:07;9.00;99.90
74171;DHT22;62526;50.948;6.590;2023-12-20T07:18:34;9.00;99.90
74171;DHT22;62526;50.948;6.590;2023-12-20T07:21:01;8.90;99.90
74171;DHT22;62526;50.948;6.590;2023-12-20T07:23:28;9.20;99.90
74171;DHT22;62526;50.948;6.590;2023-12-20T07:25:55;9.30;99.90
74171;DHT22;62526;50.948;6.590;2023-12-20T07:28:22;9.40;99.90
74171;DHT22;62526;50.948;6.590;2023-12-20T07:30:49;9.40;99.90
74171;DHT22;62526;50.948;6.590;2023-12-20T07:33:16;9.50;99.90
74171;DHT22;62526;50.948;6.590;2023-12-20T07:35:42;9.40;99.90
74171;DHT22;62526;50.948;6.590;2023-12-20T07:38:10;9.40;99.90
74171;DHT22;62526;50.948;6.590;2023-12-20T07:40:37;9.30;99.90
74171;DHT22;62526;50.948;6.590;2023-12-20T07:43:04;9.10;99.90
74171;DHT22;62526;50.948;6.590;2023-12-20T07:45:31;9.20;99.90
74171;DHT22;62526;50.948;6.590;2023-12-20T07:47:58;9.20;99.90
74171;DHT22;62526;50.948;6.590;2023-12-20T07:50:26;9.10;99.90
74171;DHT22;62526;50.948;6.590;2023-12-20T07:52:53;8.90;99.90
74171;DHT22;62526;50.948;6.590;2023-12-20T07:55:20;8.80;99.90
74171;DHT22;62526;50.948;6.590;2023-12-20T07:57:47;9.10;99.90
74171;DHT22;62526;50.948;6.590;2023-12-20T08:00:13;9.10;99.90
74171;DHT22;62526;50.948;6.590;2023-12-20T08:02:40;8.80;99.90
74171;DHT22;62526;50.948;6.590;2023-12-20T08:05:07;9.00;99.90
74171;DHT22;62526;50.948;6.590;2023-12-20T08:07:35;8.90;99.90
74171;DHT22;62526;50.948;6.590;2023-12-20T08:10:02;9.20;99.90
74171;DHT22;62526;50.948;6.590;2023-12-20T08:12:29;9.20;99.90
74171;DHT22;62526;50.948;6.590;2023-12-20T08:14:56;9.40;99.90
74171;DHT22;62526;50.948;6.590;2023-12-20T08:17:23;9.40;99.90
74171;DHT22;62526;50.948;6.590;2023-12-20T08:19:50;9.10;99.90
74171;DHT22;62526;50.948;6.590;2023-12-20T08:22:17;8.90;99.90
74171;DHT22;62526;50.948;6.590;2023-12-20T08:24:44;8.80;99.90
74171;DHT22;62526;50.948;6.590;2023-12-20T08:27:11;8.90;99.90
74171;DHT22;62526;50.948;6.590;2023-12-20T08:29:38;9.00;99.90
74171;DHT22;62526;50.948;6.590;2023-12-20T08:32:05;9.10;99.90
74171;DHT22;62526;50.948;6.590;2023-12-20T08:34:32;9.10;99.90
74171;DHT22;62526;50.948;6.590;2023-12-20T08:36:59;8.90;99.90
74171;DHT22;62526;50.948;6.590;2023-12-20T08:39:26;8.70;99.90
74171;DHT22;62526;50.948;6.590;2023-12-20T08:41:53;8.80;99.90
74171;DHT22;62526;50.948;6.590;2023-12-20T08:44:20;9.00;99.90
74171;DHT22;62526;50.948;6.590;2023-12-20T08:46:47;9.10;99.90
74171;DHT22;62526;50.948;6.590;2023-12-20T08:49:14;8.90;99.90
74171;DHT22;62526;50.948;6.590;2023-12-20T08:51:44;9.00;99.90
74171;DHT22;62526;50.948;6.590;2023-12-20T08:54:13;8.90;99.90
74171;DHT22;62526;50.948;6.590;2023-12-20T08:56:40;8.80;99.90
74171;DHT22;62526;50.948;6.590;2023-12-20T08:59:07;8.60;99.90
74171;DHT22;62526;50.948;6.590;2023-12-20T09:01:34;8.70;99.90
74171;DHT22;62526;50.948;6.590;2023-12-20T09:04:01;8.80;99.90
74171;DHT22;62526;50.948;6.590;2023-12-20T09:06:27;9.20;99.90
74171;DHT22;62526;50.948;6.590;2023-12-20T09:08:55;9.20;99.90
74171;DHT22;62526;50.948;6.590;2023-12-20T09:11:22;9.10;99.90
74171;DHT22;62526;50.948;6.590;2023-12-20T09:13:51;9.20;99.90
74171;DHT22;62526;50.948;6.590;2023-12-20T09:16:18;9.30;99.90
74171;DHT22;62526;50.948;6.590;2023-12-20T09:18:45;9.40;99.90
74171;DHT22;62526;50.948;6.590;2023-12-20T09:21:12;9.20;99.90
74171;DHT22;62526;50.948;6.590;2023-12-20T09:23:38;9.10;99.90
74171;DHT22;62526;50.948;6.590;2023-12-20T09:26:05;9.50;99.90
74171;DHT22;62526;50.948;6.590;2023-12-20T09:28:31;9.70;99.90
74171;DHT22;62526;50.948;6.590;2023-12-20T09:30:59;9.40;99.90
74171;DHT22;62526;50.948;6.590;2023-12-20T09:33:25;9.50;99.90
74171;DHT22;62526;50.948;6.590;2023-12-20T09:35:52;9.60;99.90
74171;DHT22;62526;50.948;6.590;2023-12-20T09:38:19;9.60;99.90
74171;DHT22;62526;50.948;6.590;2023-12-20T09:40:45;10.00;99.90
74171;DHT22;62526;50.948;6.590;2023-12-20T09:43:14;9.80;99.90
74171;DHT22;62526;50.948;6.590;2023-12-20T09:45:39;9.70;99.90
74171;DHT22;62526;50.948;6.590;2023-12-20T09:48:06;9.70;99.90
74171;DHT22;62526;50.948;6.590;2023-12-20T09:50:34;9.60;99.90
74171;DHT22;62526;50.948;6.590;2023-12-20T09:53:02;9.80;99.90
74171;DHT22;62526;50.948;6.590;2023-12-20T09:55:31;9.80;99.90
74171;DHT22;62526;50.948;6.590;2023-12-20T09:57:59;9.90;99.90
74171;DHT22;62526;50.948;6.590;2023-12-20T10:00:24;9.90;99.90
74171;DHT22;62526;50.948;6.590;2023-12-20T10:03:00;9.80;99.90
74171;DHT22;62526;50.948;6.590;2023-12-20T10:05:29;9.80;99.90
74171;DHT22;62526;50.948;6.590;2023-12-20T10:07:55;9.50;99.90
74171;DHT22;62526;50.948;6.590;2023-12-20T10:10:22;9.60;99.90
74171;DHT22;62526;50.948;6.590;2023-12-20T10:13:01;9.60;99.90
74171;DHT22;62526;50.948;6.590;2023-12-20T10:15:27;9.80;99.90
74171;DHT22;62526;50.948;6.590;2023-12-20T10:17:54;9.70;99.90
74171;DHT22;62526;50.948;6.590;2023-12-20T10:20:21;9.80;99.90
74171;DHT22;62526;50.948;6.590;2023-12-20T10:22:48;9.50;99.90
74171;DHT22;62526;50.948;6.590;2023-12-20T10:25:15;9.30;99.90
74171;DHT22;62526;50.948;6.590;2023-12-20T10:27:42;9.20;99.90
74171;DHT22;62526;50.948;6.590;2023-12-20T10:30:09;9.30;99.90
74171;DHT22;62526;50.948;6.590;2023-12-20T10:32:36;9.30;99.90
74171;DHT22;62526;50.948;6.590;2023-12-20T10:35:04;9.50;99.90
74171;DHT22;62526;50.948;6.590;2023-12-20T10:37:30;9.60;99.90
74171;DHT22;62526;50.948;6.590;2023-12-20T10:39:57;9.50;99.90
74171;DHT22;62526;50.948;6.590;2023-12-20T10:42:26;9.40;99.90
74171;DHT22;62526;50.948;6.590;2023-12-20T10:44:52;9.50;99.90
74171;DHT22;62526;50.948;6.590;2023-12-20T10:47:19;9.40;99.90
74171;DHT22;62526;50.948;6.590;2023-12-20T10:49:46;9.10;99.90
74171;DHT22;62526;50.948;6.590;2023-12-20T10:52:13;9.30;99.90
74171;DHT22;62526;50.948;6.590;2023-12-20T10:54:40;8.00;99.90
74171;DHT22;62526;50.948;6.590;2023-12-20T10:57:07;9.40;99.90
74171;DHT22;62526;50.948;6.590;2023-12-20T10:59:36;9.70;99.90
74171;DHT22;62526;50.948;6.590;2023-12-20T11:02:02;9.30;99.90
74171;DHT22;62526;50.948;6.590;2023-12-20T11:04:31;9.20;99.90
74171;DHT22;62526;50.948;6.590;2023-12-20T11:06:59;9.30;99.90
74171;DHT22;62526;50.948;6.590;2023-12-20T11:09:33;9.60;99.90
74171;DHT22;62526;50.948;6.590;2023-12-20T11:13:10;9.10;99.90
74171;DHT22;62526;50.948;6.590;2023-12-20T11:14:46;9.40;99.90
74171;DHT22;62526;50.948;6.590;2023-12-20T11:17:13;9.50;99.90
74171;DHT22;62526;50.948;6.590;2023-12-20T11:22:33;9.50;99.90
74171;DHT22;62526;50.948;6.590;2023-12-20T11:25:07;9.30;99.90
74171;DHT22;62526;50.948;6.590;2023-12-20T11:27:37;9.40;99.90
74171;DHT22;62526;50.948;6.590;2023-12-20T11:30:04;9.50;99.90
74171;DHT22;62526;50.948;6.590;2023-12-20T11:32:33;9.50;99.90
74171;DHT22;62526;50.948;6.590;2023-12-20T11:34:59;10.00;99.90
74171;DHT22;62526;50.948;6.590;2023-12-20T11:37:29;10.20;99.90
74171;DHT22;62526;50.948;6.590;2023-12-20T11:39:56;10.00;99.90
74171;DHT22;62526;50.948;6.590;2023-12-20T11:42:24;9.80;99.90
74171;DHT22;62526;50.948;6.590;2023-12-20T11:44:50;10.00;99.90
74171;DHT22;62526;50.948;6.590;2023-12-20T11:47:17;10.10;99.90
74171;DHT22;62526;50.948;6.590;2023-12-20T11:49:46;10.10;99.90
74171;DHT22;62526;50.948;6.590;2023-12-20T11:52:12;10.80;99.90
74171;DHT22;62526;50.948;6.590;2023-12-20T11:54:38;10.10;99.90
74171;DHT22;62526;50.948;6.590;2023-12-20T11:57:05;10.20;99.90
74171;DHT22;62526;50.948;6.590;2023-12-20T11:59:32;10.10;99.90
74171;DHT22;62526;50.948;6.590;2023-12-20T12:01:59;10.20;99.90
74171;DHT22;62526;50.948;6.590;2023-12-20T12:04:26;10.30;99.90
74171;DHT22;62526;50.948;6.590;2023-12-20T12:06:52;10.10;99.90
74171;DHT22;62526;50.948;6.590;2023-12-20T12:09:20;10.20;99.90
74171;DHT22;62526;50.948;6.590;2023-12-20T12:11:47;10.20;99.90
74171;DHT22;62526;50.948;6.590;2023-12-20T12:14:15;10.00;99.90
74171;DHT22;62526;50.948;6.590;2023-12-20T12:16:42;10.10;99.90
74171;DHT22;62526;50.948;6.590;2023-12-20T12:19:19;10.00;99.90
74171;DHT22;62526;50.948;6.590;2023-12-20T12:21:35;10.20;99.90
74171;DHT22;62526;50.948;6.590;2023-12-20T12:24:08;10.20;99.90
74171;DHT22;62526;50.948;6.590;2023-12-20T12:26:34;10.20;99.90
74171;DHT22;62526;50.948;6.590;2023-12-20T12:29:01;10.00;99.90
74171;DHT22;62526;50.948;6.590;2023-12-20T12:31:28;10.00;99.90
74171;DHT22;62526;50.948;6.590;2023-12-20T12:33:55;10.00;99.90
74171;DHT22;62526;50.948;6.590;2023-12-20T12:36:21;10.10;99.90
74171;DHT22;62526;50.948;6.590;2023-12-20T12:38:48;10.10;99.90
74171;DHT22;62526;50.948;6.590;2023-12-20T12:41:15;10.30;99.90
74171;DHT22;62526;50.948;6.590;2023-12-20T12:43:42;10.10;99.90
74171;DHT22;62526;50.948;6.590;2023-12-20T12:46:09;10.20;99.90
74171;DHT22;62526;50.948;6.590;2023-12-20T12:48:36;10.00;99.90
74171;DHT22;62526;50.948;6.590;2023-12-20T12:51:03;10.00;99.90
74171;DHT22;62526;50.948;6.590;2023-12-20T12:53:35;10.10;99.90
74171;DHT22;62526;50.948;6.590;2023-12-20T12:56:01;10.20;99.90
74171;DHT22;62526;50.948;6.590;2023-12-20T12:58:29;10.00;99.90
74171;DHT22;62526;50.948;6.590;2023-12-20T13:00:56;10.50;99.90
74171;DHT22;62526;50.948;6.590;2023-12-20T13:03:22;10.20;99.90
74171;DHT22;62526;50.948;6.590;2023-12-20T13:05:49;10.40;99.90
74171;DHT22;62526;50.948;6.590;2023-12-20T13:08:16;10.50;99.90
74171;DHT22;62526;50.948;6.590;2023-12-20T13:10:42;10.30;99.90
74171;DHT22;62526;50.948;6.590;2023-12-20T13:13:10;10.10;99.90
74171;DHT22;62526;50.948;6.590;2023-12-20T13:15:37;10.30;99.90
74171;DHT22;62526;50.948;6.590;2023-12-20T13:18:04;10.40;99.90
74171;DHT22;62526;50.948;6.590;2023-12-20T13:20:31;10.40;99.90
74171;DHT22;62526;50.948;6.590;2023-12-20T13:22:58;10.30;99.90
74171;DHT22;62526;50.948;6.590;2023-12-20T13:25:25;10.50;99.90
74171;DHT22;62526;50.948;6.590;2023-12-20T13:27:53;10.50;99.90
74171;DHT22;62526;50.948;6.590;2023-12-20T13:30:19;10.30;99.90
74171;DHT22;62526;50.948;6.590;2023-12-20T13:32:46;10.30;99.90
74171;DHT22;62526;50.948;6.590;2023-12-20T13:35:13;10.30;99.90
74171;DHT22;62526;50.948;6.590;2023-12-20T13:37:40;10.30;99.90
74171;DHT22;62526;50.948;6.590;2023-12-20T13:40:07;10.10;99.90
74171;DHT22;62526;50.948;6.590;2023-12-20T13:42:34;10.20;99.90
74171;DHT22;62526;50.948;6.590;2023-12-20T13:45:01;10.30;99.90
74171;DHT22;62526;50.948;6.590;2023-12-20T13:47:29;10.40;99.90
74171;DHT22;62526;50.948;6.590;2023-12-20T13:49:55;10.40;99.90
74171;DHT22;62526;50.948;6.590;2023-12-20T13:52:23;10.80;99.90
74171;DHT22;62526;50.948;6.590;2023-12-20T13:54:49;10.80;99.90
74171;DHT22;62526;50.948;6.590;2023-12-20T13:57:16;10.80;99.90
74171;DHT22;62526;50.948;6.590;2023-12-20T13:59:43;10.30;99.90
74171;DHT22;62526;50.948;6.590;2023-12-20T14:02:10;10.60;99.90
74171;DHT22;62526;50.948;6.590;2023-12-20T14:04:37;10.70;99.90
74171;DHT22;62526;50.948;6.590;2023-12-20T14:07:03;10.70;99.90
74171;DHT22;62526;50.948;6.590;2023-12-20T14:09:30;10.70;99.90
74171;DHT22;62526;50.948;6.590;2023-12-20T14:11:57;10.80;99.90
74171;DHT22;62526;50.948;6.590;2023-12-20T14:14:23;10.50;99.90
74171;DHT22;62526;50.948;6.590;2023-12-20T14:16:50;10.40;99.90
74171;DHT22;62526;50.948;6.590;2023-12-20T14:19:17;10.20;99.90
74171;DHT22;62526;50.948;6.590;2023-12-20T14:21:43;10.60;99.90
74171;DHT22;62526;50.948;6.590;2023-12-20T14:24:10;10.70;99.90
74171;DHT22;62526;50.948;6.590;2023-12-20T14:26:36;10.70;99.90
74171;DHT22;62526;50.948;6.590;2023-12-20T14:29:03;10.80;99.90
74171;DHT22;62526;50.948;6.590;2023-12-20T14:31:30;10.90;99.90
74171;DHT22;62526;50.948;6.590;2023-12-20T14:33:56;10.80;99.90
74171;DHT22;62526;50.948;6.590;2023-12-20T14:36:23;10.80;99.90
74171;DHT22;62526;50.948;6.590;2023-12-20T14:38:50;10.60;99.90
74171;DHT22;62526;50.948;6.590;2023-12-20T14:41:17;10.50;99.90
74171;DHT22;62526;50.948;6.590;2023-12-20T14:43:44;10.50;99.90
74171;DHT22;62526;50.948;6.590;2023-12-20T14:46:11;10.50;99.90
74171;DHT22;62526;50.948;6.590;2023-12-20T14:48:38;10.40;99.90
74171;DHT22;62526;50.948;6.590;2023-12-20T14:51:04;10.40;99.90
74171;DHT22;62526;50.948;6.590;2023-12-20T14:53:31;10.40;99.90
74171;DHT22;62526;50.948;6.590;2023-12-20T14:55:58;10.30;99.90
74171;DHT22;62526;50.948;6.590;2023-12-20T14:58:25;10.20;99.90
74171;DHT22;62526;50.948;6.590;2023-12-20T15:00:51;10.30;99.90
74171;DHT22;62526;50.948;6.590;2023-12-20T15:03:19;10.30;99.90
74171;DHT22;62526;50.948;6.590;2023-12-20T15:05:45;10.70;99.90
74171;DHT22;62526;50.948;6.590;2023-12-20T15:08:12;10.50;99.90
74171;DHT22;62526;50.948;6.590;2023-12-20T15:10:39;10.60;99.90
74171;DHT22;62526;50.948;6.590;2023-12-20T15:13:06;10.50;99.90
74171;DHT22;62526;50.948;6.590;2023-12-20T15:15:33;10.50;99.90
74171;DHT22;62526;50.948;6.590;2023-12-20T15:17:59;10.50;99.90
74171;DHT22;62526;50.948;6.590;2023-12-20T15:20:26;10.70;99.90
74171;DHT22;62526;50.948;6.590;2023-12-20T15:22:53;10.60;99.90
74171;DHT22;62526;50.948;6.590;2023-12-20T15:25:19;10.90;99.90
74171;DHT22;62526;50.948;6.590;2023-12-20T15:27:46;10.80;99.90
74171;DHT22;62526;50.948;6.590;2023-12-20T15:30:13;10.80;99.90
74171;DHT22;62526;50.948;6.590;2023-12-20T15:32:40;11.60;99.90
74171;DHT22;62526;50.948;6.590;2023-12-20T15:35:08;10.60;99.90
74171;DHT22;62526;50.948;6.590;2023-12-20T15:37:35;10.10;99.90
74171;DHT22;62526;50.948;6.590;2023-12-20T15:40:02;10.20;99.90
74171;DHT22;62526;50.948;6.590;2023-12-20T15:42:28;10.30;99.90